sensor_id;sensor_type;location;lat;lon;timestamp;P1;durP1;ratioP1;P2;durP2;ratioP2
59434;SDS011;45241;49.768;8.636;2023-02-15T00:01:22;23.48;;;12.60;;
59434;SDS011;45241;49.768;8.636;2023-02-15T00:03:48;23.40;;;12.85;;
59434;SDS011;45241;49.768;8.636;2023-02-15T00:06:13;22.80;;;12.93;;
59434;SDS011;45241;49.768;8.636;2023-02-15T00:08:39;21.05;;;12.07;;
59434;SDS011;45241;49.768;8.636;2023-02-15T00:11:12;22.85;;;12.43;;
59434;SDS011;45241;49.768;8.636;2023-02-15T00:13:39;23.95;;;12.32;;
59434;SDS011;45241;49.768;8.636;2023-02-15T00:16:09;22.05;;;13.23;;
59434;SDS011;45241;49.768;8.636;2023-02-15T00:18:37;25.58;;;13.48;;
59434;SDS011;45241;49.768;8.636;2023-02-15T00:21:06;27.02;;;14.55;;
59434;SDS011;45241;49.768;8.636;2023-02-15T00:23:34;28.75;;;13.20;;
59434;SDS011;45241;49.768;8.636;2023-02-15T00:26:07;28.88;;;14.23;;
59434;SDS011;45241;49.768;8.636;2023-02-15T00:28:34;27.23;;;14.80;;
59434;SDS011;45241;49.768;8.636;2023-02-15T00:31:07;25.90;;;13.73;;
59434;SDS011;45241;49.768;8.636;2023-02-15T00:33:36;29.17;;;14.85;;
59434;SDS011;45241;49.768;8.636;2023-02-15T00:36:03;31.58;;;15.82;;
59434;SDS011;45241;49.768;8.636;2023-02-15T00:38:29;28.50;;;15.07;;
59434;SDS011;45241;49.768;8.636;2023-02-15T00:40:55;33.47;;;15.20;;
59434;SDS011;45241;49.768;8.636;2023-02-15T00:43:22;32.05;;;15.30;;
59434;SDS011;45241;49.768;8.636;2023-02-15T00:45:47;28.45;;;14.95;;
59434;SDS011;45241;49.768;8.636;2023-02-15T00:48:13;31.00;;;14.40;;
59434;SDS011;45241;49.768;8.636;2023-02-15T00:50:38;29.58;;;14.90;;
59434;SDS011;45241;49.768;8.636;2023-02-15T00:53:04;33.83;;;15.77;;
59434;SDS011;45241;49.768;8.636;2023-02-15T00:55:29;32.80;;;15.65;;
59434;SDS011;45241;49.768;8.636;2023-02-15T00:57:54;32.03;;;15.90;;
59434;SDS011;45241;49.768;8.636;2023-02-15T01:00:20;34.22;;;16.77;;
59434;SDS011;45241;49.768;8.636;2023-02-15T01:02:45;36.15;;;16.85;;
59434;SDS011;45241;49.768;8.636;2023-02-15T01:05:10;35.45;;;16.40;;
59434;SDS011;45241;49.768;8.636;2023-02-15T01:07:36;32.45;;;16.17;;
59434;SDS011;45241;49.768;8.636;2023-02-15T01:10:01;48.05;;;16.63;;
59434;SDS011;45241;49.768;8.636;2023-02-15T01:12:27;38.45;;;17.05;;
59434;SDS011;45241;49.768;8.636;2023-02-15T01:14:52;34.15;;;16.73;;
59434;SDS011;45241;49.768;8.636;2023-02-15T01:17:17;35.20;;;16.20;;
59434;SDS011;45241;49.768;8.636;2023-02-15T01:19:43;35.38;;;15.85;;
59434;SDS011;45241;49.768;8.636;2023-02-15T01:22:08;41.05;;;16.73;;
59434;SDS011;45241;49.768;8.636;2023-02-15T01:24:34;38.45;;;17.08;;
59434;SDS011;45241;49.768;8.636;2023-02-15T01:26:59;47.85;;;16.50;;
59434;SDS011;45241;49.768;8.636;2023-02-15T01:29:24;37.75;;;16.35;;
59434;SDS011;45241;49.768;8.636;2023-02-15T01:31:50;33.83;;;16.80;;
59434;SDS011;45241;49.768;8.636;2023-02-15T01:34:15;38.17;;;17.02;;
59434;SDS011;45241;49.768;8.636;2023-02-15T01:36:40;32.53;;;16.17;;
59434;SDS011;45241;49.768;8.636;2023-02-15T01:39:06;31.20;;;16.05;;
59434;SDS011;45241;49.768;8.636;2023-02-15T01:41:32;25.83;;;13.63;;
59434;SDS011;45241;49.768;8.636;2023-02-15T01:43:59;23.70;;;13.90;;
59434;SDS011;45241;49.768;8.636;2023-02-15T01:46:35;22.73;;;13.13;;
59434;SDS011;45241;49.768;8.636;2023-02-15T01:49:08;23.87;;;13.33;;
59434;SDS011;45241;49.768;8.636;2023-02-15T01:51:36;20.80;;;11.75;;
59434;SDS011;45241;49.768;8.636;2023-02-15T01:56:36;23.05;;;13.05;;
59434;SDS011;45241;49.768;8.636;2023-02-15T01:59:05;22.38;;;12.30;;
59434;SDS011;45241;49.768;8.636;2023-02-15T02:01:33;23.90;;;12.68;;
59434;SDS011;45241;49.768;8.636;2023-02-15T02:06:37;23.58;;;12.20;;
59434;SDS011;45241;49.768;8.636;2023-02-15T02:09:04;25.67;;;13.70;;
59434;SDS011;45241;49.768;8.636;2023-02-15T02:11:30;24.63;;;13.00;;
59434;SDS011;45241;49.768;8.636;2023-02-15T02:13:57;31.27;;;13.80;;
59434;SDS011;45241;49.768;8.636;2023-02-15T02:22:27;42.63;;;15.05;;
59434;SDS011;45241;49.768;8.636;2023-02-15T02:31:11;29.60;;;14.55;;
59434;SDS011;45241;49.768;8.636;2023-02-15T02:42:21;29.80;;;15.15;;
59434;SDS011;45241;49.768;8.636;2023-02-15T02:45:02;36.20;;;14.93;;
59434;SDS011;45241;49.768;8.636;2023-02-15T02:47:32;34.65;;;14.68;;
59434;SDS011;45241;49.768;8.636;2023-02-15T02:50:03;51.95;;;15.18;;
59434;SDS011;45241;49.768;8.636;2023-02-15T02:52:36;31.83;;;15.52;;
59434;SDS011;45241;49.768;8.636;2023-02-15T02:55:08;30.58;;;15.88;;
59434;SDS011;45241;49.768;8.636;2023-02-15T02:57:39;53.80;;;15.40;;
59434;SDS011;45241;49.768;8.636;2023-02-15T03:00:27;65.00;;;14.90;;
59434;SDS011;45241;49.768;8.636;2023-02-15T03:02:59;32.88;;;16.45;;
59434;SDS011;45241;49.768;8.636;2023-02-15T03:05:30;33.60;;;15.05;;
59434;SDS011;45241;49.768;8.636;2023-02-15T03:07:59;34.42;;;15.25;;
59434;SDS011;45241;49.768;8.636;2023-02-15T03:10:31;31.70;;;15.23;;
59434;SDS011;45241;49.768;8.636;2023-02-15T03:12:59;53.40;;;15.13;;
59434;SDS011;45241;49.768;8.636;2023-02-15T03:15:34;43.38;;;16.42;;
59434;SDS011;45241;49.768;8.636;2023-02-15T03:18:26;33.85;;;15.00;;
59434;SDS011;45241;49.768;8.636;2023-02-15T03:20:55;48.08;;;15.48;;
59434;SDS011;45241;49.768;8.636;2023-02-15T03:23:24;86.75;;;15.00;;
59434;SDS011;45241;49.768;8.636;2023-02-15T03:25:55;39.70;;;16.13;;
59434;SDS011;45241;49.768;8.636;2023-02-15T03:28:28;30.88;;;15.98;;
59434;SDS011;45241;49.768;8.636;2023-02-15T03:31:01;32.30;;;15.85;;
59434;SDS011;45241;49.768;8.636;2023-02-15T03:33:30;38.42;;;15.57;;
59434;SDS011;45241;49.768;8.636;2023-02-15T03:36:11;35.17;;;16.65;;
59434;SDS011;45241;49.768;8.636;2023-02-15T03:45:09;98.30;;;14.88;;
59434;SDS011;45241;49.768;8.636;2023-02-15T03:47:44;50.42;;;15.68;;
59434;SDS011;45241;49.768;8.636;2023-02-15T03:50:23;51.03;;;15.73;;
59434;SDS011;45241;49.768;8.636;2023-02-15T03:53:11;38.63;;;15.38;;
59434;SDS011;45241;49.768;8.636;2023-02-15T03:55:40;33.40;;;15.02;;
59434;SDS011;45241;49.768;8.636;2023-02-15T03:58:05;34.88;;;15.63;;
59434;SDS011;45241;49.768;8.636;2023-02-15T04:01:00;35.45;;;15.55;;
59434;SDS011;45241;49.768;8.636;2023-02-15T04:03:52;29.98;;;15.20;;
59434;SDS011;45241;49.768;8.636;2023-02-15T04:06:24;33.38;;;16.30;;
59434;SDS011;45241;49.768;8.636;2023-02-15T04:08:49;31.55;;;15.10;;
59434;SDS011;45241;49.768;8.636;2023-02-15T04:11:33;32.63;;;15.50;;
59434;SDS011;45241;49.768;8.636;2023-02-15T04:13:59;32.38;;;14.40;;
59434;SDS011;45241;49.768;8.636;2023-02-15T04:16:44;34.10;;;15.98;;
59434;SDS011;45241;49.768;8.636;2023-02-15T04:19:09;32.55;;;15.90;;
59434;SDS011;45241;49.768;8.636;2023-02-15T04:21:53;32.50;;;15.90;;
59434;SDS011;45241;49.768;8.636;2023-02-15T04:24:37;31.38;;;15.13;;
59434;SDS011;45241;49.768;8.636;2023-02-15T04:27:20;32.67;;;15.45;;
59434;SDS011;45241;49.768;8.636;2023-02-15T04:29:46;30.13;;;14.43;;
59434;SDS011;45241;49.768;8.636;2023-02-15T04:32:11;30.63;;;14.93;;
59434;SDS011;45241;49.768;8.636;2023-02-15T04:34:36;26.02;;;13.45;;
59434;SDS011;45241;49.768;8.636;2023-02-15T04:37:02;29.30;;;14.00;;
59434;SDS011;45241;49.768;8.636;2023-02-15T04:39:27;29.30;;;14.02;;
59434;SDS011;45241;49.768;8.636;2023-02-15T04:41:52;27.40;;;14.13;;
59434;SDS011;45241;49.768;8.636;2023-02-15T04:44:17;25.65;;;13.38;;
59434;SDS011;45241;49.768;8.636;2023-02-15T04:46:43;28.55;;;14.57;;
59434;SDS011;45241;49.768;8.636;2023-02-15T04:49:08;26.80;;;13.13;;
59434;SDS011;45241;49.768;8.636;2023-02-15T04:51:34;27.65;;;13.77;;
59434;SDS011;45241;49.768;8.636;2023-02-15T04:53:59;25.70;;;13.73;;
59434;SDS011;45241;49.768;8.636;2023-02-15T04:56:24;27.38;;;13.52;;
59434;SDS011;45241;49.768;8.636;2023-02-15T04:58:50;27.08;;;14.10;;
59434;SDS011;45241;49.768;8.636;2023-02-15T05:01:16;25.13;;;12.93;;
59434;SDS011;45241;49.768;8.636;2023-02-15T05:03:42;23.48;;;12.65;;
59434;SDS011;45241;49.768;8.636;2023-02-15T05:06:07;26.15;;;13.68;;
59434;SDS011;45241;49.768;8.636;2023-02-15T05:08:33;24.90;;;13.18;;
59434;SDS011;45241;49.768;8.636;2023-02-15T05:10:58;25.45;;;12.73;;
59434;SDS011;45241;49.768;8.636;2023-02-15T05:13:23;25.35;;;13.85;;
59434;SDS011;45241;49.768;8.636;2023-02-15T05:15:49;22.00;;;11.85;;
59434;SDS011;45241;49.768;8.636;2023-02-15T05:18:16;23.33;;;12.52;;
59434;SDS011;45241;49.768;8.636;2023-02-15T05:20:42;21.48;;;12.10;;
59434;SDS011;45241;49.768;8.636;2023-02-15T05:23:08;23.30;;;12.15;;
59434;SDS011;45241;49.768;8.636;2023-02-15T05:25:33;24.52;;;12.75;;
59434;SDS011;45241;49.768;8.636;2023-02-15T05:28:17;21.80;;;12.07;;
59434;SDS011;45241;49.768;8.636;2023-02-15T05:30:46;20.45;;;11.32;;
59434;SDS011;45241;49.768;8.636;2023-02-15T05:33:12;21.83;;;12.20;;
59434;SDS011;45241;49.768;8.636;2023-02-15T05:35:38;22.52;;;11.90;;
59434;SDS011;45241;49.768;8.636;2023-02-15T05:38:03;22.70;;;12.05;;
59434;SDS011;45241;49.768;8.636;2023-02-15T05:40:28;22.25;;;12.02;;
59434;SDS011;45241;49.768;8.636;2023-02-15T05:42:54;24.00;;;12.52;;
59434;SDS011;45241;49.768;8.636;2023-02-15T05:45:20;23.50;;;12.25;;
59434;SDS011;45241;49.768;8.636;2023-02-15T05:47:45;25.38;;;13.48;;
59434;SDS011;45241;49.768;8.636;2023-02-15T05:50:11;27.60;;;13.27;;
59434;SDS011;45241;49.768;8.636;2023-02-15T05:52:36;26.40;;;13.02;;
59434;SDS011;45241;49.768;8.636;2023-02-15T05:55:02;28.58;;;13.80;;
59434;SDS011;45241;49.768;8.636;2023-02-15T05:57:29;28.80;;;14.48;;
59434;SDS011;45241;49.768;8.636;2023-02-15T05:59:54;28.98;;;13.68;;
59434;SDS011;45241;49.768;8.636;2023-02-15T06:02:19;27.20;;;13.88;;
59434;SDS011;45241;49.768;8.636;2023-02-15T06:04:45;26.75;;;13.50;;
59434;SDS011;45241;49.768;8.636;2023-02-15T06:07:10;25.33;;;13.48;;
59434;SDS011;45241;49.768;8.636;2023-02-15T06:09:35;29.10;;;12.95;;
59434;SDS011;45241;49.768;8.636;2023-02-15T06:12:01;28.45;;;14.20;;
59434;SDS011;45241;49.768;8.636;2023-02-15T06:14:26;28.48;;;14.20;;
59434;SDS011;45241;49.768;8.636;2023-02-15T06:16:51;30.75;;;14.40;;
59434;SDS011;45241;49.768;8.636;2023-02-15T06:19:16;27.70;;;13.35;;
59434;SDS011;45241;49.768;8.636;2023-02-15T06:21:42;28.77;;;13.25;;
59434;SDS011;45241;49.768;8.636;2023-02-15T06:24:10;27.30;;;13.02;;
59434;SDS011;45241;49.768;8.636;2023-02-15T06:26:36;28.25;;;13.98;;
59434;SDS011;45241;49.768;8.636;2023-02-15T06:29:01;32.58;;;14.52;;
59434;SDS011;45241;49.768;8.636;2023-02-15T06:31:27;29.88;;;14.40;;
59434;SDS011;45241;49.768;8.636;2023-02-15T06:33:52;31.65;;;13.98;;
59434;SDS011;45241;49.768;8.636;2023-02-15T06:36:17;31.77;;;14.55;;
59434;SDS011;45241;49.768;8.636;2023-02-15T06:38:43;29.42;;;14.10;;
59434;SDS011;45241;49.768;8.636;2023-02-15T06:41:08;31.42;;;14.02;;
59434;SDS011;45241;49.768;8.636;2023-02-15T06:43:33;30.63;;;14.77;;
59434;SDS011;45241;49.768;8.636;2023-02-15T06:45:59;31.15;;;14.15;;
59434;SDS011;45241;49.768;8.636;2023-02-15T06:48:24;30.40;;;14.30;;
59434;SDS011;45241;49.768;8.636;2023-02-15T06:50:50;33.53;;;15.00;;
59434;SDS011;45241;49.768;8.636;2023-02-15T06:53:15;36.45;;;15.68;;
59434;SDS011;45241;49.768;8.636;2023-02-15T06:55:40;32.95;;;14.63;;
59434;SDS011;45241;49.768;8.636;2023-02-15T06:58:06;32.28;;;14.82;;
59434;SDS011;45241;49.768;8.636;2023-02-15T07:00:31;30.80;;;14.63;;
59434;SDS011;45241;49.768;8.636;2023-02-15T07:02:57;38.70;;;16.17;;
59434;SDS011;45241;49.768;8.636;2023-02-15T07:05:23;31.75;;;14.40;;
59434;SDS011;45241;49.768;8.636;2023-02-15T07:07:56;34.70;;;14.63;;
59434;SDS011;45241;49.768;8.636;2023-02-15T07:10:22;34.47;;;14.43;;
59434;SDS011;45241;49.768;8.636;2023-02-15T07:12:47;30.92;;;14.20;;
59434;SDS011;45241;49.768;8.636;2023-02-15T07:15:13;33.42;;;14.18;;
59434;SDS011;45241;49.768;8.636;2023-02-15T07:17:40;34.28;;;14.38;;
59434;SDS011;45241;49.768;8.636;2023-02-15T07:20:10;37.03;;;14.23;;
59434;SDS011;45241;49.768;8.636;2023-02-15T07:22:40;34.20;;;14.38;;
59434;SDS011;45241;49.768;8.636;2023-02-15T07:25:06;34.22;;;14.75;;
59434;SDS011;45241;49.768;8.636;2023-02-15T07:27:33;34.35;;;14.10;;
59434;SDS011;45241;49.768;8.636;2023-02-15T07:29:59;34.83;;;14.65;;
59434;SDS011;45241;49.768;8.636;2023-02-15T07:32:29;30.73;;;13.32;;
59434;SDS011;45241;49.768;8.636;2023-02-15T07:34:55;30.90;;;14.73;;
59434;SDS011;45241;49.768;8.636;2023-02-15T07:37:20;31.13;;;14.30;;
59434;SDS011;45241;49.768;8.636;2023-02-15T07:39:46;34.85;;;15.50;;
59434;SDS011;45241;49.768;8.636;2023-02-15T07:42:11;35.08;;;14.95;;
59434;SDS011;45241;49.768;8.636;2023-02-15T07:44:36;34.15;;;14.38;;
59434;SDS011;45241;49.768;8.636;2023-02-15T07:47:02;35.50;;;15.65;;
59434;SDS011;45241;49.768;8.636;2023-02-15T07:49:27;36.92;;;15.52;;
59434;SDS011;45241;49.768;8.636;2023-02-15T07:51:53;34.70;;;15.10;;
59434;SDS011;45241;49.768;8.636;2023-02-15T07:54:18;33.92;;;15.20;;
59434;SDS011;45241;49.768;8.636;2023-02-15T07:56:43;36.25;;;15.13;;
59434;SDS011;45241;49.768;8.636;2023-02-15T07:59:09;38.00;;;15.80;;
59434;SDS011;45241;49.768;8.636;2023-02-15T08:01:35;41.83;;;15.32;;
59434;SDS011;45241;49.768;8.636;2023-02-15T08:04:01;37.75;;;15.73;;
59434;SDS011;45241;49.768;8.636;2023-02-15T08:06:29;40.67;;;16.80;;
59434;SDS011;45241;49.768;8.636;2023-02-15T08:08:56;37.70;;;16.50;;
59434;SDS011;45241;49.768;8.636;2023-02-15T08:11:25;39.13;;;15.50;;
59434;SDS011;45241;49.768;8.636;2023-02-15T08:14:03;38.90;;;16.38;;
59434;SDS011;45241;49.768;8.636;2023-02-15T08:19:07;38.88;;;15.10;;
59434;SDS011;45241;49.768;8.636;2023-02-15T08:21:35;36.55;;;16.45;;
59434;SDS011;45241;49.768;8.636;2023-02-15T08:24:02;35.88;;;15.82;;
59434;SDS011;45241;49.768;8.636;2023-02-15T08:26:28;37.20;;;16.45;;
59434;SDS011;45241;49.768;8.636;2023-02-15T08:28:54;39.45;;;17.75;;
59434;SDS011;45241;49.768;8.636;2023-02-15T08:31:20;42.40;;;17.10;;
59434;SDS011;45241;49.768;8.636;2023-02-15T08:33:46;44.92;;;18.33;;
59434;SDS011;45241;49.768;8.636;2023-02-15T08:36:14;43.15;;;17.63;;
59434;SDS011;45241;49.768;8.636;2023-02-15T08:38:41;43.05;;;17.48;;
59434;SDS011;45241;49.768;8.636;2023-02-15T08:43:36;40.10;;;17.20;;
59434;SDS011;45241;49.768;8.636;2023-02-15T08:46:01;39.78;;;17.33;;
59434;SDS011;45241;49.768;8.636;2023-02-15T08:48:27;38.72;;;17.05;;
59434;SDS011;45241;49.768;8.636;2023-02-15T08:50:52;38.17;;;16.40;;
59434;SDS011;45241;49.768;8.636;2023-02-15T08:53:17;40.60;;;17.50;;
59434;SDS011;45241;49.768;8.636;2023-02-15T08:55:46;40.22;;;17.17;;
59434;SDS011;45241;49.768;8.636;2023-02-15T08:58:12;41.67;;;17.20;;
59434;SDS011;45241;49.768;8.636;2023-02-15T09:00:37;34.47;;;16.08;;
59434;SDS011;45241;49.768;8.636;2023-02-15T09:03:03;35.47;;;16.23;;
59434;SDS011;45241;49.768;8.636;2023-02-15T09:05:28;34.60;;;15.57;;
59434;SDS011;45241;49.768;8.636;2023-02-15T09:07:53;36.72;;;16.25;;
59434;SDS011;45241;49.768;8.636;2023-02-15T09:10:19;35.30;;;14.80;;
59434;SDS011;45241;49.768;8.636;2023-02-15T09:12:45;33.25;;;15.23;;
59434;SDS011;45241;49.768;8.636;2023-02-15T09:15:10;30.88;;;14.35;;
59434;SDS011;45241;49.768;8.636;2023-02-15T09:17:35;31.65;;;14.98;;
59434;SDS011;45241;49.768;8.636;2023-02-15T09:20:01;28.67;;;13.95;;
59434;SDS011;45241;49.768;8.636;2023-02-15T09:22:26;27.40;;;13.45;;
59434;SDS011;45241;49.768;8.636;2023-02-15T09:24:52;30.15;;;14.07;;
59434;SDS011;45241;49.768;8.636;2023-02-15T09:27:17;25.75;;;12.90;;
59434;SDS011;45241;49.768;8.636;2023-02-15T09:29:42;29.50;;;14.23;;
59434;SDS011;45241;49.768;8.636;2023-02-15T09:32:08;27.45;;;13.82;;
59434;SDS011;45241;49.768;8.636;2023-02-15T09:34:33;26.95;;;13.93;;
59434;SDS011;45241;49.768;8.636;2023-02-15T09:36:59;28.85;;;13.88;;
59434;SDS011;45241;49.768;8.636;2023-02-15T09:39:25;28.55;;;14.30;;
59434;SDS011;45241;49.768;8.636;2023-02-15T09:42:16;26.83;;;13.88;;
59434;SDS011;45241;49.768;8.636;2023-02-15T09:45:07;27.95;;;13.65;;
59434;SDS011;45241;49.768;8.636;2023-02-15T09:48:35;25.98;;;13.35;;
59434;SDS011;45241;49.768;8.636;2023-02-15T09:53:56;27.90;;;14.13;;
59434;SDS011;45241;49.768;8.636;2023-02-15T10:02:20;30.35;;;15.82;;
59434;SDS011;45241;49.768;8.636;2023-02-15T10:05:20;30.40;;;15.40;;
59434;SDS011;45241;49.768;8.636;2023-02-15T10:14:20;34.33;;;16.83;;
59434;SDS011;45241;49.768;8.636;2023-02-15T10:17:07;36.20;;;16.50;;
59434;SDS011;45241;49.768;8.636;2023-02-15T10:25:31;35.90;;;17.33;;
59434;SDS011;45241;49.768;8.636;2023-02-15T10:28:26;38.92;;;17.80;;
59434;SDS011;45241;49.768;8.636;2023-02-15T10:31:11;39.17;;;18.60;;
59434;SDS011;45241;49.768;8.636;2023-02-15T10:33:39;39.90;;;18.10;;
59434;SDS011;45241;49.768;8.636;2023-02-15T10:36:11;40.20;;;19.17;;
59434;SDS011;45241;49.768;8.636;2023-02-15T10:41:31;44.35;;;19.48;;
59434;SDS011;45241;49.768;8.636;2023-02-15T10:46:41;46.75;;;20.67;;
59434;SDS011;45241;49.768;8.636;2023-02-15T10:49:38;46.08;;;21.17;;
59434;SDS011;45241;49.768;8.636;2023-02-15T11:00:31;55.65;;;22.30;;
59434;SDS011;45241;49.768;8.636;2023-02-15T11:06:06;53.28;;;22.20;;
59434;SDS011;45241;49.768;8.636;2023-02-15T11:08:37;58.42;;;23.38;;
59434;SDS011;45241;49.768;8.636;2023-02-15T11:11:09;52.90;;;22.17;;
59434;SDS011;45241;49.768;8.636;2023-02-15T11:13:41;52.38;;;21.95;;
59434;SDS011;45241;49.768;8.636;2023-02-15T11:16:19;56.80;;;24.70;;
59434;SDS011;45241;49.768;8.636;2023-02-15T11:21:37;56.15;;;24.27;;
59434;SDS011;45241;49.768;8.636;2023-02-15T11:24:12;62.50;;;25.05;;
59434;SDS011;45241;49.768;8.636;2023-02-15T11:26:43;64.80;;;27.33;;
59434;SDS011;45241;49.768;8.636;2023-02-15T11:29:24;67.97;;;27.95;;
59434;SDS011;45241;49.768;8.636;2023-02-15T11:32:14;59.92;;;25.73;;
59434;SDS011;45241;49.768;8.636;2023-02-15T11:37:46;60.60;;;26.65;;
59434;SDS011;45241;49.768;8.636;2023-02-15T11:40:23;59.10;;;26.00;;
59434;SDS011;45241;49.768;8.636;2023-02-15T11:45:29;57.92;;;26.95;;
59434;SDS011;45241;49.768;8.636;2023-02-15T11:47:57;61.92;;;27.52;;
59434;SDS011;45241;49.768;8.636;2023-02-15T11:50:28;63.17;;;27.55;;
59434;SDS011;45241;49.768;8.636;2023-02-15T11:53:00;60.88;;;26.38;;
59434;SDS011;45241;49.768;8.636;2023-02-15T11:55:29;55.70;;;26.40;;
59434;SDS011;45241;49.768;8.636;2023-02-15T11:57:57;61.75;;;26.67;;
59434;SDS011;45241;49.768;8.636;2023-02-15T12:00:37;60.50;;;25.60;;
59434;SDS011;45241;49.768;8.636;2023-02-15T12:03:09;50.28;;;24.50;;
59434;SDS011;45241;49.768;8.636;2023-02-15T12:05:58;53.42;;;25.38;;
59434;SDS011;45241;49.768;8.636;2023-02-15T12:08:29;59.63;;;27.75;;
59434;SDS011;45241;49.768;8.636;2023-02-15T12:11:07;53.25;;;24.48;;
59434;SDS011;45241;49.768;8.636;2023-02-15T12:13:37;52.30;;;25.55;;
59434;SDS011;45241;49.768;8.636;2023-02-15T12:16:19;52.58;;;24.65;;
59434;SDS011;45241;49.768;8.636;2023-02-15T12:18:45;49.25;;;24.05;;
59434;SDS011;45241;49.768;8.636;2023-02-15T12:21:16;51.30;;;24.30;;
59434;SDS011;45241;49.768;8.636;2023-02-15T12:23:51;48.50;;;23.70;;
59434;SDS011;45241;49.768;8.636;2023-02-15T12:28:49;53.00;;;25.17;;
59434;SDS011;45241;49.768;8.636;2023-02-15T12:31:21;51.60;;;24.33;;
59434;SDS011;45241;49.768;8.636;2023-02-15T12:33:50;52.75;;;24.45;;
59434;SDS011;45241;49.768;8.636;2023-02-15T12:36:19;49.63;;;24.10;;
59434;SDS011;45241;49.768;8.636;2023-02-15T12:39:04;46.80;;;23.33;;
59434;SDS011;45241;49.768;8.636;2023-02-15T12:41:43;49.63;;;23.95;;
59434;SDS011;45241;49.768;8.636;2023-02-15T12:47:17;50.42;;;23.38;;
59434;SDS011;45241;49.768;8.636;2023-02-15T12:49:44;50.97;;;23.92;;
59434;SDS011;45241;49.768;8.636;2023-02-15T12:52:28;47.40;;;22.88;;
59434;SDS011;45241;49.768;8.636;2023-02-15T12:54:53;53.53;;;25.58;;
59434;SDS011;45241;49.768;8.636;2023-02-15T12:57:31;50.60;;;23.75;;
59434;SDS011;45241;49.768;8.636;2023-02-15T13:00:43;52.15;;;24.15;;
59434;SDS011;45241;49.768;8.636;2023-02-15T13:02:47;51.58;;;24.23;;
59434;SDS011;45241;49.768;8.636;2023-02-15T13:10:30;49.97;;;23.63;;
59434;SDS011;45241;49.768;8.636;2023-02-15T13:13:00;47.95;;;23.27;;
59434;SDS011;45241;49.768;8.636;2023-02-15T13:15:34;47.97;;;21.00;;
59434;SDS011;45241;49.768;8.636;2023-02-15T13:18:03;53.47;;;24.67;;
59434;SDS011;45241;49.768;8.636;2023-02-15T13:20:34;49.05;;;23.35;;
59434;SDS011;45241;49.768;8.636;2023-02-15T13:23:02;46.78;;;22.85;;
59434;SDS011;45241;49.768;8.636;2023-02-15T13:25:32;44.90;;;22.63;;
59434;SDS011;45241;49.768;8.636;2023-02-15T13:28:05;47.33;;;22.88;;
59434;SDS011;45241;49.768;8.636;2023-02-15T13:30:36;51.80;;;24.25;;
59434;SDS011;45241;49.768;8.636;2023-02-15T13:41:24;46.20;;;21.73;;
59434;SDS011;45241;49.768;8.636;2023-02-15T13:46:36;48.35;;;22.42;;
59434;SDS011;45241;49.768;8.636;2023-02-15T13:52:19;41.30;;;20.70;;
59434;SDS011;45241;49.768;8.636;2023-02-15T14:03:32;47.03;;;23.38;;
59434;SDS011;45241;49.768;8.636;2023-02-15T14:09:20;43.55;;;22.00;;
59434;SDS011;45241;49.768;8.636;2023-02-15T14:15:06;46.33;;;22.95;;
59434;SDS011;45241;49.768;8.636;2023-02-15T14:20:25;41.55;;;21.63;;
59434;SDS011;45241;49.768;8.636;2023-02-15T14:23:04;43.90;;;21.17;;
59434;SDS011;45241;49.768;8.636;2023-02-15T14:25:42;39.25;;;21.00;;
59434;SDS011;45241;49.768;8.636;2023-02-15T14:28:49;46.20;;;23.48;;
59434;SDS011;45241;49.768;8.636;2023-02-15T14:31:14;44.30;;;21.95;;
59434;SDS011;45241;49.768;8.636;2023-02-15T14:33:43;42.70;;;21.63;;
59434;SDS011;45241;49.768;8.636;2023-02-15T14:36:18;46.03;;;23.30;;
59434;SDS011;45241;49.768;8.636;2023-02-15T14:43:56;45.60;;;23.60;;
59434;SDS011;45241;49.768;8.636;2023-02-15T14:49:21;47.83;;;24.25;;
59434;SDS011;45241;49.768;8.636;2023-02-15T14:56:46;52.17;;;24.73;;
59434;SDS011;45241;49.768;8.636;2023-02-15T15:02:13;47.88;;;25.00;;
59434;SDS011;45241;49.768;8.636;2023-02-15T15:07:22;47.55;;;24.30;;
59434;SDS011;45241;49.768;8.636;2023-02-15T15:09:59;50.00;;;24.70;;
59434;SDS011;45241;49.768;8.636;2023-02-15T15:15:00;61.03;;;27.52;;
59434;SDS011;45241;49.768;8.636;2023-02-15T15:20:04;53.60;;;26.00;;
59434;SDS011;45241;49.768;8.636;2023-02-15T15:22:38;52.75;;;25.45;;
59434;SDS011;45241;49.768;8.636;2023-02-15T15:25:40;53.13;;;26.25;;
59434;SDS011;45241;49.768;8.636;2023-02-15T15:28:02;54.40;;;25.17;;
59434;SDS011;45241;49.768;8.636;2023-02-15T15:46:55;55.08;;;26.67;;
59434;SDS011;45241;49.768;8.636;2023-02-15T15:49:28;52.63;;;25.98;;
59434;SDS011;45241;49.768;8.636;2023-02-15T15:51:56;51.80;;;25.70;;
59434;SDS011;45241;49.768;8.636;2023-02-15T15:54:25;54.33;;;27.00;;
59434;SDS011;45241;49.768;8.636;2023-02-15T15:57:01;55.50;;;26.95;;
59434;SDS011;45241;49.768;8.636;2023-02-15T15:59:29;49.90;;;25.65;;
59434;SDS011;45241;49.768;8.636;2023-02-15T16:02:07;50.72;;;26.73;;
59434;SDS011;45241;49.768;8.636;2023-02-15T16:04:36;55.17;;;26.63;;
59434;SDS011;45241;49.768;8.636;2023-02-15T16:12:24;58.78;;;28.38;;
59434;SDS011;45241;49.768;8.636;2023-02-15T16:14:53;54.07;;;28.13;;
59434;SDS011;45241;49.768;8.636;2023-02-15T16:17:20;54.08;;;26.73;;
59434;SDS011;45241;49.768;8.636;2023-02-15T16:19:52;56.65;;;27.10;;
59434;SDS011;45241;49.768;8.636;2023-02-15T16:22:23;60.08;;;28.38;;
59434;SDS011;45241;49.768;8.636;2023-02-15T16:32:52;57.92;;;27.60;;
59434;SDS011;45241;49.768;8.636;2023-02-15T16:35:18;63.65;;;29.08;;
59434;SDS011;45241;49.768;8.636;2023-02-15T16:37:46;63.40;;;29.00;;
59434;SDS011;45241;49.768;8.636;2023-02-15T16:42:49;59.08;;;28.73;;
59434;SDS011;45241;49.768;8.636;2023-02-15T16:45:17;58.20;;;27.58;;
59434;SDS011;45241;49.768;8.636;2023-02-15T16:47:46;58.22;;;28.17;;
59434;SDS011;45241;49.768;8.636;2023-02-15T16:50:20;55.83;;;27.98;;
59434;SDS011;45241;49.768;8.636;2023-02-15T16:52:49;58.40;;;28.60;;
59434;SDS011;45241;49.768;8.636;2023-02-15T16:55:21;60.35;;;29.95;;
59434;SDS011;45241;49.768;8.636;2023-02-15T16:57:59;59.72;;;30.00;;
59434;SDS011;45241;49.768;8.636;2023-02-15T17:00:30;68.50;;;31.30;;
59434;SDS011;45241;49.768;8.636;2023-02-15T17:03:01;63.97;;;30.50;;
59434;SDS011;45241;49.768;8.636;2023-02-15T17:05:31;64.93;;;30.15;;
59434;SDS011;45241;49.768;8.636;2023-02-15T17:08:06;65.43;;;30.67;;
59434;SDS011;45241;49.768;8.636;2023-02-15T17:13:31;66.05;;;31.83;;
59434;SDS011;45241;49.768;8.636;2023-02-15T17:18:25;64.07;;;28.90;;
59434;SDS011;45241;49.768;8.636;2023-02-15T17:21:08;62.05;;;30.60;;
59434;SDS011;45241;49.768;8.636;2023-02-15T17:26:30;60.53;;;28.85;;
59434;SDS011;45241;49.768;8.636;2023-02-15T17:28:59;64.03;;;30.60;;
59434;SDS011;45241;49.768;8.636;2023-02-15T17:31:31;58.33;;;28.52;;
59434;SDS011;45241;49.768;8.636;2023-02-15T17:36:28;60.50;;;30.33;;
59434;SDS011;45241;49.768;8.636;2023-02-15T17:41:26;63.47;;;28.17;;
59434;SDS011;45241;49.768;8.636;2023-02-15T17:43:52;60.50;;;28.75;;
59434;SDS011;45241;49.768;8.636;2023-02-15T17:46:17;61.28;;;30.50;;
59434;SDS011;45241;49.768;8.636;2023-02-15T17:48:45;61.38;;;30.38;;
59434;SDS011;45241;49.768;8.636;2023-02-15T17:51:12;59.90;;;30.02;;
59434;SDS011;45241;49.768;8.636;2023-02-15T17:53:38;59.83;;;30.02;;